Time;durP1;ratioP1;P1;durP2;ratioP2;P2;SDS_P1;SDS_P2;PMS_P1;PMS_P2;Temp;Humidity;BMP_temperature;BMP_pressure;BME280_temperature;BME280_humidity;BME280_pressure;Samples;Min_cycle;Max_cycle;Signal;HPM_P1;HPM_P2
2022/11/03 00:01:34;;;;;;;6.70;0.80;;;23.40;48.80;;;;;;5038194;28;20052;-59
2022/11/03 00:04:02;;;;;;;5.47;0.80;;;23.90;48.00;;;;;;5040128;28;20037;-58
2022/11/03 00:06:29;;;;;;;3.75;0.90;;;23.90;47.10;;;;;;5036715;28;20022;-59
2022/11/03 00:09:01;;;;;;;3.90;0.52;;;23.40;47.20;;;;;;5036517;28;20034;-63
2022/11/03 00:11:28;;;;;;;5.72;0.82;;;23.30;47.20;;;;;;5029218;28;20053;-57
2022/11/03 00:13:57;;;;;;;13.98;2.08;;;23.30;45.90;;;;;;5029647;28;20029;-60
2022/11/03 00:16:24;;;;;;;4.47;1.08;;;23.50;48.40;;;;;;5031551;28;20485;-58
2022/11/03 00:18:52;;;;;;;7.40;0.63;;;23.50;47.10;;;;;;5036254;28;20038;-59
2022/11/03 00:21:19;;;;;;;2.05;0.40;;;23.50;46.20;;;;;;5031826;28;20090;-58
2022/11/03 00:23:46;;;;;;;2.00;0.52;;;23.50;47.70;;;;;;5037278;28;20017;-59
2022/11/03 00:26:22;;;;;;;2.97;0.60;;;23.60;46.50;;;;;;5032161;28;20034;-57
2022/11/03 00:28:54;;;;;;;4.53;0.90;;;23.80;45.80;;;;;;5032747;28;20030;-58
2022/11/03 00:31:24;;;;;;;4.25;0.80;;;23.80;46.10;;;;;;5035090;28;20028;-58
2022/11/03 00:33:52;;;;;;;1.98;0.45;;;24.00;45.90;;;;;;5032747;28;20478;-59
2022/11/03 00:36:22;;;;;;;3.38;0.40;;;24.10;47.60;;;;;;5034685;28;20525;-58
2022/11/03 00:38:49;;;;;;;8.82;1.83;;;24.30;46.50;;;;;;5029801;28;20032;-57
2022/11/03 00:41:19;;;;;;;5.18;0.55;;;24.20;45.60;;;;;;5037193;28;20059;-58
2022/11/03 00:43:47;;;;;;;2.80;0.80;;;24.60;47.00;;;;;;5037825;28;20207;-61
2022/11/03 00:46:14;;;;;;;4.15;1.25;;;24.90;46.00;;;;;;5040154;28;20507;-58
2022/11/03 00:48:42;;;;;;;1.15;0.40;;;25.10;45.50;;;;;;5032361;28;20469;-60
2022/11/03 00:51:11;;;;;;;2.30;0.50;;;24.80;44.30;;;;;;5033889;28;20040;-58
2022/11/03 00:53:44;;;;;;;6.63;0.68;;;24.10;44.50;;;;;;5030828;28;20485;-59
2022/11/03 00:56:23;;;;;;;6.68;0.70;;;23.30;46.10;;;;;;5041477;28;20117;-59
2022/11/03 00:58:51;;;;;;;1.70;0.47;;;23.40;44.60;;;;;;5032933;28;20508;-59
2022/11/03 01:01:21;;;;;;;1.55;0.50;;;23.50;45.50;;;;;;5036402;28;20041;-58
2022/11/03 01:06:51;;;;;;;2.85;0.40;;;24.00;46.80;;;;;;5025464;28;20083;-58
2022/11/03 01:09:23;;;;;;;5.05;0.75;;;24.30;46.90;;;;;;5030071;28;20500;-58
2022/11/03 01:12:00;;;;;;;2.03;0.30;;;24.20;44.70;;;;;;5037702;28;20375;-58
2022/11/03 01:14:32;;;;;;;5.35;0.57;;;23.70;43.60;;;;;;5029235;28;20530;-60
2022/11/03 01:16:59;;;;;;;5.63;0.55;;;23.50;44.80;;;;;;5029444;28;20452;-58
2022/11/03 01:19:26;;;;;;;1.15;0.47;;;23.80;46.90;;;;;;5043477;28;20520;-59
2022/11/03 01:21:54;;;;;;;4.65;0.65;;;23.70;45.50;;;;;;5027953;28;20048;-59
2022/11/03 01:24:21;;;;;;;2.03;0.55;;;23.20;46.30;;;;;;5027718;28;20021;-59
2022/11/03 01:26:49;;;;;;;1.52;0.60;;;22.90;46.10;;;;;;5025058;28;20036;-59
2022/11/03 01:29:19;;;;;;;1.23;0.40;;;22.30;47.10;;;;;;5032733;28;20025;-59
2022/11/03 01:31:47;;;;;;;0.93;0.40;;;22.30;47.10;;;;;;5032117;28;20279;-60
2022/11/03 01:34:16;;;;;;;2.28;0.40;;;22.40;48.40;;;;;;5039729;28;20122;-59
2022/11/03 01:36:45;;;;;;;2.20;0.50;;;22.40;48.30;;;;;;5042432;28;20068;-58
2022/11/03 01:39:14;;;;;;;5.50;0.40;;;22.60;47.60;;;;;;5036935;28;20021;-58
2022/11/03 01:41:43;;;;;;;2.85;0.45;;;23.10;48.00;;;;;;5031556;28;20112;-59
2022/11/03 01:44:10;;;;;;;1.65;0.60;;;23.80;45.30;;;;;;5032065;28;20025;-59
2022/11/03 01:46:46;;;;;;;3.80;0.82;;;24.20;46.10;;;;;;5031255;28;20037;-60
2022/11/03 01:49:19;;;;;;;3.83;0.50;;;24.60;47.10;;;;;;5023130;28;20057;-59
2022/11/03 01:51:56;;;;;;;5.47;0.67;;;24.10;44.50;;;;;;5032880;28;20056;-60
2022/11/03 01:54:25;;;;;;;3.35;0.75;;;24.30;47.70;;;;;;5027072;28;20040;-59
2022/11/03 01:56:53;;;;;;;1.08;0.40;;;24.70;43.50;;;;;;5033881;28;20057;-59
2022/11/03 01:59:23;;;;;;;0.70;0.40;;;24.70;42.50;;;;;;5026644;28;20073;-59
2022/11/03 02:01:50;;;;;;;3.97;0.38;;;24.90;45.10;;;;;;5029671;28;20116;-59
2022/11/03 02:04:29;;;;;;;2.17;0.32;;;25.00;40.70;;;;;;5031170;28;20098;-59
2022/11/03 02:07:22;;;;;;;0.70;0.30;;;25.10;41.80;;;;;;5033116;28;20060;-61
2022/11/03 02:09:49;;;;;;;1.88;0.22;;;25.20;43.60;;;;;;5023445;28;20028;-59
2022/11/03 02:12:18;;;;;;;4.53;0.50;;;25.00;43.50;;;;;;5031686;28;20112;-59
2022/11/03 02:15:01;;;;;;;3.55;0.88;;;24.40;44.00;;;;;;5025694;28;20029;-59
2022/11/03 02:17:32;;;;;;;7.88;0.75;;;24.00;43.80;;;;;;5028711;28;20060;-59
2022/11/03 02:20:13;;;;;;;6.20;0.82;;;23.70;45.90;;;;;;5026071;28;20025;-59
2022/11/03 02:23:00;;;;;;;2.42;0.55;;;23.40;44.50;;;;;;5024866;28;20121;-59
2022/11/03 02:25:39;;;;;;;1.17;0.43;;;23.00;45.10;;;;;;5032511;28;20052;-60
2022/11/03 02:28:07;;;;;;;2.88;0.50;;;22.70;45.40;;;;;;5033655;28;20551;-60
2022/11/03 02:30:46;;;;;;;1.52;0.40;;;22.70;46.20;;;;;;5022430;28;20517;-59
2022/11/03 02:33:42;;;;;;;1.25;0.43;;;23.40;47.60;;;;;;5023154;28;20065;-60
2022/11/03 02:36:22;;;;;;;3.03;0.65;;;24.60;46.70;;;;;;5022879;28;20029;-59
2022/11/03 02:39:13;;;;;;;1.10;0.20;;;25.00;43.60;;;;;;5028615;28;20790;-59
2022/11/03 02:41:41;;;;;;;0.73;0.30;;;25.00;42.50;;;;;;5037359;28;20061;-61
2022/11/03 02:44:21;;;;;;;3.75;0.50;;;24.60;42.80;;;;;;5028107;28;20036;-60
2022/11/03 02:47:00;;;;;;;2.35;0.95;;;24.30;44.60;;;;;;5030758;28;20705;-60
2022/11/03 02:49:28;;;;;;;4.15;0.63;;;24.00;44.40;;;;;;5031489;28;20749;-59
2022/11/03 02:52:03;;;;;;;1.55;0.45;;;23.90;44.60;;;;;;5030332;28;20037;-60
2022/11/03 02:54:44;;;;;;;3.30;0.57;;;23.60;45.40;;;;;;5027402;28;20065;-60
2022/11/03 02:57:21;;;;;;;6.55;0.50;;;23.50;46.60;;;;;;5026444;28;20052;-60
2022/11/03 03:00:01;;;;;;;5.90;0.38;;;23.60;46.10;;;;;;5025688;28;20025;-61
2022/11/03 03:02:39;;;;;;;5.80;0.50;;;23.50;46.00;;;;;;5030453;28;20752;-62
2022/11/03 03:05:10;;;;;;;2.15;0.70;;;23.40;45.50;;;;;;5027540;28;20582;-60
2022/11/03 03:07:44;;;;;;;7.00;0.40;;;23.20;45.40;;;;;;5033404;28;20371;-59
2022/11/03 03:10:15;;;;;;;4.05;0.50;;;23.10;46.90;;;;;;5025167;28;20520;-60
2022/11/03 03:12:54;;;;;;;2.03;0.50;;;23.10;46.10;;;;;;5027414;28;20051;-59
2022/11/03 03:15:31;;;;;;;2.47;0.40;;;23.20;47.20;;;;;;5032283;28;20039;-59
2022/11/03 03:18:15;;;;;;;1.95;0.47;;;23.90;47.10;;;;;;5027854;28;20108;-59
2022/11/03 03:21:02;;;;;;;;;;;24.60;46.40;;;;;;5022656;28;20037;-60
2022/11/03 03:23:39;;;;;;;1.30;0.30;;;25.30;42.00;;;;;;5028467;28;19956;-61
2022/11/03 03:26:17;;;;;;;3.72;0.50;;;25.80;43.80;;;;;;5041887;28;20044;-61
2022/11/03 03:29:18;;;;;;;8.43;0.73;;;26.40;43.00;;;;;;5027130;28;20112;-59
2022/11/03 03:31:51;;;;;;;1.63;0.22;;;26.50;41.20;;;;;;5029622;28;20128;-60
2022/11/03 03:34:21;;;;;;;1.83;0.73;;;26.50;41.90;;;;;;5026557;28;20036;-59
2022/11/03 03:36:50;;;;;;;1.98;0.40;;;26.70;40.90;;;;;;5043543;28;20036;-60
2022/11/03 03:39:20;;;;;;;2.17;0.40;;;26.80;41.50;;;;;;5024963;28;20048;-60
2022/11/03 03:41:48;;;;;;;1.83;0.50;;;26.60;40.90;;;;;;5028415;28;20091;-61
2022/11/03 03:44:17;;;;;;;1.05;0.40;;;26.30;41.00;;;;;;5020143;28;20564;-60
2022/11/03 03:46:56;;;;;;;0.28;0.10;;;26.20;40.20;;;;;;5021187;28;20036;-60
2022/11/03 03:49:23;;;;;;;1.15;0.35;;;26.00;40.60;;;;;;5027759;28;20100;-60
2022/11/03 03:51:51;;;;;;;5.68;0.93;;;25.50;39.10;;;;;;5028845;28;20117;-60
2022/11/03 03:54:18;;;;;;;4.20;0.60;;;25.10;43.00;;;;;;5027455;28;20030;-60
2022/11/03 03:57:03;;;;;;;2.40;0.30;;;24.10;45.20;;;;;;5024577;28;20025;-60
2022/11/03 03:59:30;;;;;;;3.15;0.52;;;23.60;45.60;;;;;;5029473;28;20374;-61
2022/11/03 04:01:58;;;;;;;1.70;0.35;;;22.60;46.80;;;;;;5026173;28;20080;-60
2022/11/03 04:04:25;;;;;;;4.80;0.85;;;22.20;48.60;;;;;;5027405;28;20619;-61
2022/11/03 04:07:45;;;;;;;3.58;0.40;;;22.10;48.40;;;;;;5029020;28;20045;-60
2022/11/03 04:09:40;;;;;;;2.35;0.47;;;21.80;49.10;;;;;;5028147;28;20501;-60
2022/11/03 04:23:14;;;;;;;3.83;0.40;;;21.60;51.00;;;;;;5023746;28;20515;-60
2022/11/03 04:25:46;;;;;;;0.82;0.40;;;21.70;51.00;;;;;;5026608;28;20053;-61
2022/11/03 04:28:14;;;;;;;2.30;0.50;;;21.80;49.70;;;;;;5029073;28;20091;-60
2022/11/03 04:30:42;;;;;;;5.07;0.52;;;21.60;50.40;;;;;;5028175;28;20477;-61
2022/11/03 04:33:21;;;;;;;1.75;0.55;;;21.30;51.50;;;;;;5030158;28;20020;-60
2022/11/03 04:35:48;;;;;;;1.48;0.60;;;21.40;51.80;;;;;;5024923;28;20028;-61
2022/11/03 04:38:15;;;;;;;2.33;0.60;;;21.30;51.40;;;;;;5030894;28;20039;-60
2022/11/03 04:40:48;;;;;;;0.73;0.30;;;21.10;52.50;;;;;;5043452;28;20032;-60
2022/11/03 04:43:18;;;;;;;1.40;0.60;;;21.10;52.00;;;;;;5031514;28;20025;-59
2022/11/03 04:45:47;;;;;;;3.85;0.95;;;21.30;52.70;;;;;;5036080;28;20021;-60
2022/11/03 04:48:22;;;;;;;4.30;0.40;;;21.40;51.50;;;;;;5023765;28;20497;-59
2022/11/03 04:50:53;;;;;;;3.72;0.50;;;21.10;51.20;;;;;;5022492;28;20903;-66
2022/11/03 04:53:22;;;;;;;3.10;0.55;;;21.20;52.40;;;;;;5029074;28;20148;-64
2022/11/03 04:55:53;;;;;;;0.85;0.35;;;21.30;51.70;;;;;;5026883;28;20423;-60
2022/11/03 04:58:26;;;;;;;2.65;0.50;;;21.40;52.50;;;;;;5025632;28;20069;-59
2022/11/03 05:00:55;;;;;;;0.63;0.30;;;21.50;51.90;;;;;;5034505;28;20425;-59
2022/11/03 05:03:31;;;;;;;1.55;0.40;;;21.40;51.10;;;;;;5037337;28;20031;-59
2022/11/03 05:06:01;;;;;;;3.83;0.40;;;21.40;52.30;;;;;;5026214;28;20053;-60
2022/11/03 05:08:28;;;;;;;3.28;0.60;;;21.50;51.30;;;;;;5027078;28;20079;-59
2022/11/03 05:10:55;;;;;;;3.17;0.55;;;21.60;51.10;;;;;;5034846;28;20053;-58
2022/11/03 05:13:26;;;;;;;3.22;0.47;;;21.50;49.80;;;;;;5035249;28;20017;-59
2022/11/03 05:16:00;;;;;;;1.48;0.50;;;21.40;50.50;;;;;;5031527;28;20032;-59
2022/11/03 05:18:30;;;;;;;;;;;21.60;52.60;;;;;;5031907;28;20029;-59
2022/11/03 05:20:59;;;;;;;1.77;0.60;;;22.00;52.30;;;;;;5029133;28;20039;-55
2022/11/03 05:23:30;;;;;;;1.27;0.55;;;22.20;48.20;;;;;;5027687;28;20082;-65
2022/11/03 05:25:58;;;;;;;1.73;0.65;;;22.60;48.80;;;;;;5026934;28;20113;-57
2022/11/03 05:28:34;;;;;;;1.45;0.40;;;22.70;49.00;;;;;;5027160;28;20030;-63
2022/11/03 05:31:13;;;;;;;1.25;0.57;;;22.70;49.50;;;;;;5034055;28;20053;-57
2022/11/03 05:33:41;;;;;;;1.35;0.43;;;22.70;49.00;;;;;;5030109;28;20477;-58
2022/11/03 05:36:20;;;;;;;1.65;0.70;;;22.60;47.80;;;;;;5027222;28;20045;-59
2022/11/03 05:38:48;;;;;;;2.17;0.52;;;22.60;49.10;;;;;;5027565;28;20033;-59
2022/11/03 05:41:24;;;;;;;9.80;0.98;;;22.50;49.10;;;;;;5031872;28;20807;-58
2022/11/03 05:44:35;;;;;;;2.22;0.40;;;22.20;49.70;;;;;;5029979;28;20038;-59
2022/11/03 05:47:24;;;;;;;1.85;0.47;;;22.00;49.70;;;;;;5023031;28;20413;-59
2022/11/03 05:49:59;;;;;;;6.15;0.65;;;22.10;49.40;;;;;;5027473;28;20037;-58
2022/11/03 05:52:27;;;;;;;1.70;0.50;;;22.10;48.60;;;;;;5025904;28;20124;-59
2022/11/03 05:54:58;;;;;;;4.85;0.60;;;22.00;49.00;;;;;;5025918;28;20025;-60
2022/11/03 05:57:28;;;;;;;1.20;0.30;;;22.10;49.30;;;;;;5024536;28;20033;-59
2022/11/03 05:59:56;;;;;;;0.68;0.25;;;22.30;50.70;;;;;;5027862;28;20037;-66
2022/11/03 06:02:29;;;;;;;8.60;0.40;;;22.50;48.70;;;;;;5026736;28;20506;-59
2022/11/03 06:04:58;;;;;;;2.13;0.63;;;22.20;48.70;;;;;;5024471;28;20502;-59
2022/11/03 06:07:28;;;;;;;1.85;0.47;;;22.00;49.60;;;;;;5022048;28;21651;-58
2022/11/03 06:09:57;;;;;;;1.33;0.70;;;21.70;51.10;;;;;;5024471;28;20029;-62
2022/11/03 06:12:25;;;;;;;4.75;0.60;;;21.30;54.10;;;;;;5026113;28;20095;-58
2022/11/03 06:14:53;;;;;;;2.05;0.68;;;20.90;55.50;;;;;;5024856;28;20018;-58
2022/11/03 06:17:28;;;;;;;1.90;0.52;;;20.70;56.90;;;;;;5025374;28;20105;-56
2022/11/03 06:19:58;;;;;;;3.53;0.73;;;20.20;58.00;;;;;;5028127;28;20030;-57
2022/11/03 06:22:29;;;;;;;3.40;0.45;;;19.90;60.30;;;;;;5026822;28;20033;-60
2022/11/03 06:25:32;;;;;;;4.40;1.13;;;19.70;62.20;;;;;;5032480;28;20044;-60
2022/11/03 06:28:05;;;;;;;3.28;0.90;;;19.50;64.30;;;;;;5039012;28;20119;-60
2022/11/03 06:30:38;;;;;;;3.92;0.80;;;19.20;65.40;;;;;;5025893;28;20030;-59
2022/11/03 06:33:21;;;;;;;6.05;0.80;;;19.00;67.10;;;;;;5030714;28;20288;-59
2022/11/03 06:35:53;;;;;;;3.70;0.90;;;18.70;69.70;;;;;;5027100;28;20492;-60
2022/11/03 06:38:25;;;;;;;9.63;1.10;;;18.70;70.20;;;;;;5025854;28;20402;-59
2022/11/03 06:40:53;;;;;;;4.72;1.20;;;18.60;71.60;;;;;;5034409;28;20043;-60
2022/11/03 06:43:31;;;;;;;4.65;0.85;;;18.50;72.80;;;;;;5032728;28;20092;-59
2022/11/03 06:46:01;;;;;;;4.30;0.80;;;18.60;73.70;;;;;;5029648;28;20029;-60
2022/11/03 06:48:29;;;;;;;3.80;0.50;;;18.80;73.20;;;;;;5029771;28;20446;-60
2022/11/03 06:50:58;;;;;;;6.53;0.95;;;18.90;71.80;;;;;;5034110;28;20032;-61
2022/11/03 06:53:30;;;;;;;6.20;1.30;;;19.10;71.60;;;;;;5025973;28;20042;-65
2022/11/03 06:55:59;;;;;;;6.30;1.08;;;19.30;71.40;;;;;;5033845;28;20029;-60
2022/11/03 06:58:37;;;;;;;5.25;0.93;;;19.10;70.70;;;;;;5028673;28;20034;-63
2022/11/03 07:01:15;;;;;;;4.35;0.90;;;18.90;72.60;;;;;;5024504;28;20033;-59
2022/11/03 07:03:42;;;;;;;6.93;1.30;;;18.90;73.00;;;;;;5023851;28;20025;-56
2022/11/03 07:06:26;;;;;;;5.55;0.70;;;18.80;73.60;;;;;;5027982;28;20033;-59
2022/11/03 07:08:59;;;;;;;5.10;0.90;;;18.70;74.20;;;;;;5022282;28;20060;-62
2022/11/03 07:11:52;;;;;;;7.70;1.42;;;18.60;74.30;;;;;;5027719;28;20033;-59
2022/11/03 07:14:31;;;;;;;6.43;0.73;;;18.30;74.90;;;;;;5027680;28;20482;-59
2022/11/03 07:17:06;;;;;;;4.82;0.70;;;18.20;76.10;;;;;;5029016;28;20053;-60
2022/11/03 07:19:40;;;;;;;4.82;1.23;;;18.00;77.40;;;;;;5033624;28;20075;-58
2022/11/03 07:22:22;;;;;;;3.03;0.73;;;17.80;78.20;;;;;;5028163;28;20069;-58
2022/11/03 07:24:53;;;;;;;4.63;0.70;;;17.60;79.30;;;;;;5043893;28;20485;-59
2022/11/03 07:27:28;;;;;;;4.50;0.88;;;17.50;79.50;;;;;;5030045;28;20091;-58
2022/11/03 07:30:20;;;;;;;4.88;1.23;;;17.40;80.40;;;;;;5033398;28;20029;-63
2022/11/03 07:32:50;;;;;;;7.65;1.13;;;17.30;81.10;;;;;;5035548;28;20136;-59
2022/11/03 07:35:17;;;;;;;2.70;0.70;;;17.30;81.00;;;;;;5047315;28;20045;-56
2022/11/03 07:37:46;;;;;;;5.43;0.70;;;17.30;81.70;;;;;;5040873;28;20021;-56
2022/11/03 07:40:25;;;;;;;1.67;0.75;;;17.20;81.30;;;;;;5036679;28;21309;-59
2022/11/03 07:42:57;;;;;;;6.20;1.05;;;17.20;81.30;;;;;;5033395;28;20118;-59
2022/11/03 07:45:41;;;;;;;1.35;0.52;;;17.10;81.60;;;;;;5030878;28;20124;-60
2022/11/03 07:48:18;;;;;;;7.13;1.47;;;17.10;82.70;;;;;;5044521;28;20026;-59
2022/11/03 07:50:47;;;;;;;4.57;1.05;;;17.00;83.80;;;;;;5027412;28;20274;-60
2022/11/03 07:53:22;;;;;;;4.10;1.17;;;17.00;84.90;;;;;;5031418;28;20044;-59
2022/11/03 07:55:52;;;;;;;4.63;1.15;;;17.00;85.80;;;;;;5040739;28;20375;-59
2022/11/03 07:58:33;;;;;;;11.02;1.98;;;17.00;87.00;;;;;;5035169;28;20394;-59
2022/11/03 08:01:01;;;;;;;4.95;1.10;;;16.90;87.70;;;;;;5032853;28;20465;-59
2022/11/03 08:03:49;;;;;;;9.15;2.08;;;16.90;88.40;;;;;;5040152;28;20087;-59
2022/11/03 08:06:17;;;;;;;6.75;0.85;;;16.90;89.70;;;;;;5024849;28;20027;-59
2022/11/03 08:08:44;;;;;;;8.93;1.50;;;16.70;90.00;;;;;;5026715;28;20033;-59
2022/11/03 08:11:12;;;;;;;9.27;1.13;;;16.70;90.40;;;;;;5033669;28;20025;-60
2022/11/03 08:13:39;;;;;;;6.60;1.40;;;16.70;90.60;;;;;;5029553;28;20515;-61
2022/11/03 08:16:07;;;;;;;7.65;1.65;;;16.60;90.80;;;;;;5028832;28;20530;-59
2022/11/03 08:18:35;;;;;;;10.02;1.20;;;16.50;91.10;;;;;;5024439;28;20025;-59
2022/11/03 08:21:03;;;;;;;7.15;1.50;;;16.40;91.50;;;;;;5028532;28;20056;-59
2022/11/03 08:23:31;;;;;;;8.00;1.60;;;16.30;91.30;;;;;;5027194;28;20545;-59
2022/11/03 08:25:58;;;;;;;10.27;1.25;;;16.20;91.60;;;;;;5039042;28;20048;-59
2022/11/03 08:28:26;;;;;;;6.43;1.40;;;16.10;91.70;;;;;;5033428;28;20034;-63
2022/11/03 08:30:53;;;;;;;8.45;1.20;;;16.10;91.90;;;;;;5031013;28;20525;-58
2022/11/03 08:33:20;;;;;;;5.40;1.60;;;16.00;91.80;;;;;;5030552;28;20033;-59
2022/11/03 08:35:48;;;;;;;7.35;2.03;;;16.00;91.90;;;;;;5036036;28;20027;-61
2022/11/03 08:38:15;;;;;;;6.72;1.70;;;16.00;92.10;;;;;;5035105;28;20768;-59
2022/11/03 08:40:42;;;;;;;11.25;2.13;;;16.00;91.90;;;;;;5031533;28;20050;-59
2022/11/03 08:43:10;;;;;;;11.10;2.67;;;16.00;92.10;;;;;;5041465;28;20020;-59
2022/11/03 08:45:37;;;;;;;7.53;1.77;;;16.00;92.00;;;;;;5038577;28;20060;-59
2022/11/03 08:48:05;;;;;;;11.95;1.73;;;16.00;91.80;;;;;;5034843;28;20148;-59
2022/11/03 08:50:32;;;;;;;10.38;1.30;;;16.00;91.80;;;;;;5030458;28;20458;-59
2022/11/03 08:53:00;;;;;;;7.68;1.73;;;16.00;92.50;;;;;;5023068;28;20052;-60
2022/11/03 08:55:27;;;;;;;7.80;1.83;;;16.00;92.90;;;;;;5026409;28;20462;-60
2022/11/03 08:57:54;;;;;;;7.63;1.60;;;15.90;94.00;;;;;;5033235;28;20486;-60
2022/11/03 09:00:22;;;;;;;12.27;1.40;;;15.80;95.20;;;;;;5028127;28;20033;-60
2022/11/03 09:02:49;;;;;;;7.85;1.58;;;15.70;96.80;;;;;;5033449;28;20063;-60
2022/11/03 09:05:16;;;;;;;10.13;1.38;;;15.60;97.60;;;;;;5035059;28;20033;-60
2022/11/03 09:07:46;;;;;;;10.98;3.13;;;15.40;98.90;;;;;;5037108;28;20337;-61
2022/11/03 09:10:13;;;;;;;15.88;1.58;;;15.20;99.90;;;;;;5022323;28;20136;-60
2022/11/03 09:12:41;;;;;;;9.10;1.85;;;15.00;99.90;;;;;;5025020;28;20035;-61
2022/11/03 09:15:08;;;;;;;10.85;1.88;;;14.80;99.90;;;;;;5023489;28;20057;-60
2022/11/03 09:17:35;;;;;;;16.50;1.92;;;14.60;99.90;;;;;;5032034;28;20036;-62
2022/11/03 09:20:04;;;;;;;17.85;2.80;;;14.40;99.90;;;;;;5025122;28;20045;-60
2022/11/03 09:22:32;;;;;;;12.82;2.78;;;14.40;99.90;;;;;;5032218;28;20513;-59
2022/11/03 09:24:59;;;;;;;9.52;1.77;;;14.30;99.90;;;;;;5044985;28;20099;-61
2022/11/03 09:27:26;;;;;;;12.27;1.83;;;14.20;99.90;;;;;;5035657;28;20032;-61
2022/11/03 09:29:54;;;;;;;15.50;1.73;;;14.10;99.90;;;;;;5030413;28;20033;-60
2022/11/03 09:32:21;;;;;;;10.85;1.70;;;14.00;99.90;;;;;;5028623;28;20032;-60
2022/11/03 09:34:48;;;;;;;7.65;1.55;;;13.90;99.90;;;;;;5026417;28;20095;-61
2022/11/03 09:37:16;;;;;;;8.95;1.58;;;13.90;99.90;;;;;;5030615;28;20202;-60
2022/11/03 09:39:43;;;;;;;14.65;1.73;;;13.90;99.90;;;;;;5029666;28;20017;-61
2022/11/03 09:42:12;;;;;;;13.23;2.05;;;13.80;99.90;;;;;;5024245;28;20044;-60
2022/11/03 09:44:39;;;;;;;13.63;2.65;;;13.80;99.90;;;;;;5029215;28;20502;-60
2022/11/03 09:47:10;;;;;;;12.45;1.75;;;13.80;99.90;;;;;;5016960;28;20075;-61
2022/11/03 09:49:37;;;;;;;8.25;1.70;;;13.80;99.90;;;;;;5028320;28;20605;-60
2022/11/03 09:52:05;;;;;;;11.10;2.30;;;13.80;99.90;;;;;;5024740;28;20498;-60
2022/11/03 09:54:33;;;;;;;9.27;2.08;;;13.70;99.90;;;;;;5024167;28;20128;-60
2022/11/03 09:57:10;;;;;;;9.18;2.28;;;13.80;99.90;;;;;;5027454;28;20033;-63
2022/11/03 09:59:45;;;;;;;17.70;2.55;;;13.70;99.90;;;;;;5029583;28;20488;-60
2022/11/03 10:02:27;;;;;;;10.95;2.50;;;13.70;99.90;;;;;;5026070;28;20038;-61
2022/11/03 10:04:57;;;;;;;9.70;2.40;;;13.70;99.90;;;;;;5037084;28;20028;-61
2022/11/03 10:07:27;;;;;;;13.55;4.38;;;13.70;99.90;;;;;;5026028;28;20087;-62
2022/11/03 10:09:55;;;;;;;11.88;3.55;;;13.70;99.90;;;;;;5028498;28;20026;-60
2022/11/03 10:12:24;;;;;;;12.98;2.92;;;13.70;99.90;;;;;;5029244;28;20025;-61
2022/11/03 10:14:54;;;;;;;10.65;3.38;;;13.70;99.90;;;;;;5023252;28;20056;-61
2022/11/03 10:17:28;;;;;;;15.13;2.35;;;13.70;99.90;;;;;;5016360;28;20456;-60
2022/11/03 10:19:57;;;;;;;12.75;2.35;;;13.70;99.90;;;;;;5036671;28;20037;-61
2022/11/03 10:22:24;;;;;;;9.48;3.20;;;13.80;99.90;;;;;;5037738;28;20453;-62
2022/11/03 10:25:26;;;;;;;10.38;2.92;;;13.70;99.90;;;;;;5026978;28;20025;-61
2022/11/03 10:28:12;;;;;;;12.35;2.60;;;13.70;99.90;;;;;;5018404;28;20379;-60
2022/11/03 10:30:52;;;;;;;9.35;2.10;;;13.70;99.90;;;;;;5031241;28;20025;-60
2022/11/03 10:33:30;;;;;;;11.85;2.97;;;13.80;99.90;;;;;;5025440;28;20443;-61
2022/11/03 10:35:59;;;;;;;9.15;1.90;;;13.80;99.90;;;;;;5025500;28;20030;-60
2022/11/03 10:38:32;;;;;;;14.60;2.70;;;13.80;99.90;;;;;;5025205;28;20060;-62
2022/11/03 10:41:14;;;;;;;23.50;3.50;;;13.70;99.90;;;;;;5028513;28;20052;-61
2022/11/03 10:43:44;;;;;;;15.35;2.70;;;13.70;99.90;;;;;;5043272;28;20068;-60
2022/11/03 10:46:17;;;;;;;17.08;3.00;;;13.70;99.90;;;;;;5031078;28;20059;-61
2022/11/03 10:48:59;;;;;;;12.70;2.03;;;13.70;99.90;;;;;;5039110;28;20033;-60
2022/11/03 10:51:28;;;;;;;9.52;1.90;;;13.80;99.90;;;;;;5021041;28;20033;-61
2022/11/03 10:53:56;;;;;;;10.10;2.15;;;13.80;99.90;;;;;;5027726;28;20072;-64
2022/11/03 10:56:23;;;;;;;14.23;2.85;;;13.80;99.90;;;;;;5040926;28;20477;-61
2022/11/03 10:58:51;;;;;;;10.13;3.05;;;13.80;99.90;;;;;;5025998;28;20021;-61
2022/11/03 11:01:18;;;;;;;10.90;2.40;;;13.80;99.90;;;;;;5028872;28;20042;-63
2022/11/03 11:03:45;;;;;;;15.25;2.65;;;13.70;99.90;;;;;;5031328;28;20068;-60
2022/11/03 11:06:28;;;;;;;11.65;2.50;;;13.70;99.90;;;;;;5035843;28;20496;-61
2022/11/03 11:09:01;;;;;;;16.08;3.17;;;13.60;99.90;;;;;;5035319;28;20029;-66
2022/11/03 11:11:28;;;;;;;17.55;2.88;;;13.60;99.90;;;;;;5030843;28;20075;-61
2022/11/03 11:14:22;;;;;;;10.63;2.35;;;13.50;99.90;;;;;;5028589;28;20057;-62
2022/11/03 11:16:57;;;;;;;10.10;2.40;;;13.50;99.90;;;;;;5033089;28;20028;-59
2022/11/03 11:19:26;;;;;;;7.90;1.80;;;13.50;99.90;;;;;;5035855;28;20059;-60
2022/11/03 11:21:53;;;;;;;12.13;2.83;;;13.40;99.90;;;;;;5047171;28;20040;-60
2022/11/03 11:24:42;;;;;;;9.23;3.40;;;13.30;99.90;;;;;;5034958;28;20026;-60
2022/11/03 11:27:47;;;;;;;14.40;3.15;;;13.30;99.90;;;;;;5030144;28;20037;-59
2022/11/03 11:30:20;;;;;;;14.23;3.63;;;13.30;99.90;;;;;;5038992;28;20538;-59
2022/11/03 11:32:58;;;;;;;12.40;3.17;;;13.40;99.90;;;;;;5029059;28;20079;-62
2022/11/03 11:35:25;;;;;;;17.98;2.95;;;13.40;99.90;;;;;;5027779;28;20393;-62
2022/11/03 11:37:53;;;;;;;19.67;3.17;;;13.40;99.90;;;;;;5033580;28;20032;-61
2022/11/03 11:40:26;;;;;;;8.18;2.78;;;13.40;99.90;;;;;;5027869;28;20037;-61
2022/11/03 11:43:05;;;;;;;15.85;2.83;;;13.50;99.90;;;;;;5030432;28;20037;-61
2022/11/03 11:46:09;;;;;;;12.15;2.15;;;13.50;99.90;;;;;;5035560;28;20043;-61
2022/11/03 11:48:36;;;;;;;9.45;2.65;;;13.50;99.90;;;;;;5024453;28;20029;-60
2022/11/03 11:51:07;;;;;;;14.07;2.30;;;13.50;99.90;;;;;;5028717;28;20033;-61
2022/11/03 11:53:40;;;;;;;16.02;3.00;;;13.40;99.90;;;;;;5030574;28;20045;-59
2022/11/03 11:56:11;;;;;;;14.57;4.13;;;13.40;99.90;;;;;;5031124;28;20029;-61
2022/11/03 11:58:46;;;;;;;16.75;5.65;;;13.40;99.90;;;;;;5028715;28;20128;-60
2022/11/03 12:01:34;;;;;;;25.55;8.55;;;13.40;99.90;;;;;;5029995;28;20034;-60
2022/11/03 12:04:25;;;;;;;25.13;8.88;;;13.40;99.90;;;;;;5014208;28;20099;-60
2022/11/03 12:06:54;;;;;;;23.90;9.23;;;13.40;99.90;;;;;;5027296;28;20091;-61
2022/11/03 12:09:25;;;;;;;24.33;9.60;;;13.40;99.90;;;;;;5028141;28;20029;-60
2022/11/03 12:11:56;;;;;;;28.98;10.85;;;13.50;99.90;;;;;;5029640;28;20064;-60
2022/11/03 12:14:37;;;;;;;28.25;10.15;;;13.40;99.90;;;;;;5029400;28;20033;-60
2022/11/03 12:17:17;;;;;;;28.55;9.77;;;13.40;99.90;;;;;;5028882;28;20027;-60
2022/11/03 12:19:46;;;;;;;24.05;9.63;;;13.40;99.90;;;;;;5026807;28;20031;-61
2022/11/03 12:22:25;;;;;;;21.13;10.18;;;13.50;99.90;;;;;;5022758;28;20100;-60
2022/11/03 12:24:53;;;;;;;29.83;8.13;;;13.40;99.90;;;;;;5026194;28;20437;-60
2022/11/03 12:27:41;;;;;;;25.80;9.68;;;13.40;99.90;;;;;;5026753;28;20097;-61
2022/11/03 12:30:19;;;;;;;27.98;8.70;;;13.30;99.90;;;;;;5029800;28;20036;-60
2022/11/03 12:32:47;;;;;;;26.77;8.65;;;13.20;99.90;;;;;;5030589;28;20030;-61
2022/11/03 12:35:14;;;;;;;26.02;8.15;;;13.10;99.90;;;;;;5028764;28;20496;-60
2022/11/03 12:37:41;;;;;;;21.48;7.28;;;13.00;99.90;;;;;;5029230;28;20578;-60
2022/11/03 12:40:11;;;;;;;20.10;6.40;;;12.90;99.90;;;;;;5027416;28;20029;-60
2022/11/03 12:42:38;;;;;;;19.73;6.70;;;12.80;99.90;;;;;;5022452;28;20512;-60
2022/11/03 12:45:07;;;;;;;20.50;6.57;;;12.70;99.90;;;;;;5020839;28;20470;-60
2022/11/03 12:47:34;;;;;;;23.27;6.78;;;12.70;99.90;;;;;;5028567;28;20033;-60
2022/11/03 12:50:03;;;;;;;23.23;6.13;;;12.60;99.90;;;;;;5026986;28;20094;-60
2022/11/03 12:52:30;;;;;;;18.23;6.00;;;12.60;99.90;;;;;;5008633;28;20049;-61
2022/11/03 12:54:57;;;;;;;14.30;4.10;;;12.50;99.90;;;;;;5024762;28;20033;-61
2022/11/03 12:57:25;;;;;;;17.85;5.85;;;12.50;99.90;;;;;;5023359;28;20025;-60
2022/11/03 12:59:52;;;;;;;15.95;5.93;;;12.50;99.90;;;;;;5028981;28;20036;-60
2022/11/03 13:02:20;;;;;;;21.30;6.32;;;12.60;99.90;;;;;;5028919;28;20536;-60
2022/11/03 13:04:47;;;;;;;14.05;3.88;;;12.70;99.90;;;;;;5029915;28;20160;-60
2022/11/03 13:07:14;;;;;;;15.68;4.18;;;12.70;99.90;;;;;;5030916;28;20032;-60
2022/11/03 13:09:42;;;;;;;21.58;4.18;;;12.80;99.90;;;;;;5030269;28;20045;-60
2022/11/03 13:12:30;;;;;;;18.70;3.80;;;12.90;99.90;;;;;;5030444;28;20032;-60
2022/11/03 13:14:58;;;;;;;20.52;3.72;;;13.00;99.90;;;;;;5031106;28;20025;-60
2022/11/03 13:17:26;;;;;;;14.38;3.22;;;13.10;99.90;;;;;;5030793;28;20112;-61
2022/11/03 13:19:53;;;;;;;16.40;4.18;;;13.10;99.90;;;;;;5030852;28;20022;-60
2022/11/03 13:22:21;;;;;;;14.65;3.88;;;13.20;99.90;;;;;;5035156;28;20067;-60
2022/11/03 13:24:48;;;;;;;17.60;3.47;;;13.20;99.90;;;;;;5029055;28;20030;-60